Brier Hill, New York
Current Conditions -  °F | °C
As of 7:58 PM on Monday 26 Jan 2015 (Local Time) from KGTB Reporting Station
Overcast Overcast  
Wind Chill: -9°   Ceiling: 5500
Heat Index:   Visibility: 10mi
Dew Point: -4°   Wind: 10mph
Humidity: 65%   Direction: 30°NNE
Pressure: 30.01"   Gusts: NA
Location:  44.53°N, 75.66°W
Report Text: KGTB 270058Z AUTO 03009KT 10SM FEW030 SCT043 OVC055 M15/M20 A3001 RMK AO2 SLP182 T11471199
Loading
Personal Weather Stations






























Interactive Weather Map New forecast layout! Learn more

10-Day Weather Forecast

Advertisements
Track Severe Weather on mobile